Montezuma, NM (87731)

1:19 PM MST on January 30, 2015 (GMT -0700)
North 8th. Street Extension | Change Station
CLOSE
Current Station
Personal Weather Station
Location: Las Vegas, NM
Elevation: 6526 ft
Nearby Weather Stations
Active Advisory: Winter Storm Warning Active Notice: Public Information Statement

Elev 6526 ft 35.61 °N, 105.23 °W | Updated 0 second ago

Snow
Snow
33.3 °F
Feels Like 33 °F
N
0.0
Wind Variable Wind from NNE
Gusts 0.0 mph

Today
High -- | Low -- °F
--% Chance of Precip.
Yesterday
High -- | Low -- °F
Precip. -- in
7:02 AM 5:26 PM
Waxing Gibbous, 85% visible
Pressure 30.21 in
Visibility 3.0 miles
Clouds Scattered Clouds 900 ft
Scattered Clouds 1300 ft
Overcast 2600 ft
Windchill 33 °F
Dew Point 26 °F
Humidity 76%
Rainfall 0.00 in
Snow Depth Not available.
UV 0.0 out of 12
Pollen .90 out of 12
Air Quality Not available.
Flu Activity Not available.
SPECI KLVS 302013Z AUTO 20009KT 3SM -SN BR SCT009 SCT013 OVC026 M02/M04 A3021 RMK AO2 P0000 T10171039

More Conditions Fewer Conditions

Pressure 30.21 in
Visibility 3.0 miles
Clouds Scattered Clouds 900 ft
Scattered Clouds 1300 ft
Overcast 2600 ft
Windchill 33 °F
Dew Point 26 °F
Humidity 76%
Rainfall 0.00 in
Snow Depth Not available.
UV 0.0 out of 12
Pollen .90 out of 12
Air Quality Not available.
Flu Activity Not available.
SPECI KLVS 302013Z AUTO 20009KT 3SM -SN BR SCT009 SCT013 OVC026 M02/M04 A3021 RMK AO2 P0000 T10171039

More Conditions Fewer Conditions

Nowcast | as of 12:03 PM MST on January 30, 2015

Through 2 PM MST...snow will continue across central and northern New Mexico...although mixed with or turning over to rain at the lowest elevations. Periods of snow will impact roads including Interstate 40 around Albuquerque...Interstate 25 between La Bajada Hill...Glorieta Pass and Raton Pass and Highway 285 between Clines Corners...Santa Fe and Espanola. 1 or 2 inches of new snow accumulation will be possible above 6500 feet. For the latest Road conditions visit N M roads dot com or dial 5 1 1.

×

10-Day Weather Forecast

Almanac

Astronomy

Jan. 30, 2015 Rise Set
Actual Time
Civil Twilight
Nautical Twilight
Astronomical Twilight
Moon
Length of Visible Light
Length of Day
Tomorrow will be .
, % of the Moon is Illuminated

Today's Extremes

State Highs State Lows

Community

WunderPhotos

Upload Photos

1,791,883 photos uploaded!

WunderBlogs® & News

Nearby

Air Quality

  Air Quality AQ Index Pollutant
Not available.

Snow Depth

Station Depth Elevation

Earthquake Activity

City Distance Mag. Time & Date
Minimum magnitude displayed is 2.5.

Coastal Water Temperatures

Place Temperature

Nearby Weather Stations